Amarillo, TX

5:11 PM CDT on July 26, 2017 (GMT -0500)
Amarillo International | | Change Station
Active Advisory: Special Statement

Elev 3606 ft 35.22 °N, 101.71 °W | Updated 18 minutes ago

Clear
Clear
98 °F
Feels Like 97 °F
N
16
Wind Variable Wind from South

Today
High -- | Low -- °F
--% Chance of Precip.
Yesterday
High -- | Low -- °F
Precip. -- in
Pressure 29.82 in
Visibility 10.0 miles
Clouds Clear
Heat Index 97 °F
Dew Point 58 °F
Humidity 26%
Rainfall 0.00 in
Snow Depth Not available.
6:51 AM 8:54 PM
Waxing Crescent, 16% visible
METAR KAMA 262153Z 17014KT 10SM CLR 37/14 A3002 RMK AO2 LTG DSNT NW SLP098 T03670144
Pressure 29.82 in
Visibility 10.0 miles
Clouds Clear
Heat Index 97 °F
Dew Point 58 °F
Humidity 26%
Rainfall 0.00 in
Snow Depth Not available.
6:51 AM 8:54 PM
Waxing Crescent, 16% visible
METAR KAMA 262153Z 17014KT 10SM CLR 37/14 A3002 RMK AO2 LTG DSNT NW SLP098 T03670144

Get Your Daily Forecast Email!

Thanks for signing up!

Be on the lookout for a verification email in your inbox.

You'll start receiving severe weather alerts in your inbox..

×

10-Day Weather Forecast

Almanac

Astronomy

Jul. 26, 2017 Rise Set
Actual Time
Civil Twilight
Nautical Twilight
Astronomical Twilight
Moon
Length of Visible Light
Length of Day
Tomorrow will be .
, % of the Moon is Illuminated

Today's Extremes

State Highs State Lows

Community

WunderPhotos

Category 6

Welcome to Category 6. This is the collective home for Weather Underground's featured writeups by Dr. Jeff Masters (right), Bob Henson (left), Chris Burt, and other regular contributors.

Nearby

Air Quality

  Air Quality AQ Index Pollutant
Not available.

Snow Depth

Station Depth Elevation

Earthquake Activity

City Distance Mag. Time & Date
Minimum magnitude displayed is 2.5.

Coastal Water Temperatures

Place Temperature

Stations

Nearby Weather Stations

Station Location Temp. Windchill Dew Point Humidity Wind Precip. Elev Updated Type
                   

Watches & Warnings

Special Statement
Issued: 4:51 PM CDT Jul. 26, 2017 – National Weather Service

... Significant weather advisory for southeastern Oldham and western
Potter counties until 515 PM CDT...

At 451 PM CDT, Doppler radar was tracking a strong thunderstorm 4
miles west of valley de Oro, or 18 miles northeast of Vega, moving
east at 10 mph.

Wind gusts up to 50 mph will be possible with this storm.

Locations impacted include...
Boys Ranch and valley de Oro.

Precautionary/preparedness actions...

Take shelter in a sturdy building if threatening weather approaches.

Heavy rainfall is also occurring with this storm, and may lead to
localized flooding. Do not drive your vehicle through flooded
roadways.


Lat... Lon 3528 10250 3552 10239 3554 10190 3523 10197
time... Mot... loc 2151z 277deg 10kt 3543 10218


Ward